Time;durP1;ratioP1;P1;durP2;ratioP2;P2;SDS_P1;SDS_P2;PMS_P1;PMS_P2;Temp;Humidity;BMP_temperature;BMP_pressure;BME280_temperature;BME280_humidity;BME280_pressure;Samples;Min_cycle;Max_cycle;Signal;HPM_P1;HPM_P2
2022/05/15 00:01:09;;;;;;;6.93;3.53;;;;;;;20.52;42.03;101172.88;5051589;28;20511;-61
2022/05/15 00:03:40;;;;;;;11.00;4.13;;;;;;;20.68;42.19;101178.38;5038671;28;20041;-63
2022/05/15 00:06:08;;;;;;;10.00;3.85;;;;;;;20.70;42.09;101176.84;5076951;28;20119;-62
2022/05/15 00:08:36;;;;;;;11.02;3.67;;;;;;;20.87;41.39;101167.97;5058088;28;20045;-62
2022/05/15 00:11:03;;;;;;;9.95;4.00;;;;;;;20.48;42.30;101171.19;5079161;28;20047;-62
2022/05/15 00:13:31;;;;;;;13.15;3.47;;;;;;;20.42;42.87;101161.44;5059148;28;20348;-62
2022/05/15 00:15:59;;;;;;;9.38;3.65;;;;;;;20.46;42.44;101153.94;5060585;28;20053;-61
2022/05/15 00:18:26;;;;;;;12.32;3.78;;;;;;;20.40;43.00;101152.66;5056795;28;20056;-62
2022/05/15 00:20:54;;;;;;;9.30;3.47;;;;;;;20.56;42.44;101150.53;5051371;28;20052;-60
2022/05/15 00:23:23;;;;;;;11.90;3.53;;;;;;;20.23;43.48;101153.06;5049585;28;20507;-60
2022/05/15 00:25:51;;;;;;;8.77;3.47;;;;;;;20.23;43.16;101144.66;5062136;28;20785;-61
2022/05/15 00:28:19;;;;;;;7.03;3.35;;;;;;;20.54;42.72;101138.94;5062052;28;20060;-60
2022/05/15 00:30:47;;;;;;;8.77;3.17;;;;;;;20.34;43.04;101145.72;5053248;28;20057;-61
2022/05/15 00:33:14;;;;;;;9.60;3.20;;;;;;;20.34;43.40;101143.72;5051172;28;20049;-62
2022/05/15 00:35:42;;;;;;;13.75;3.78;;;;;;;20.38;42.93;101135.41;5059820;28;20060;-61
2022/05/15 00:38:10;;;;;;;10.73;3.38;;;;;;;20.30;43.53;101134.44;5051526;28;20059;-61
2022/05/15 00:40:40;;;;;;;9.68;3.22;;;;;;;20.43;42.98;101135.94;5061869;28;20055;-61
2022/05/15 00:43:11;;;;;;;6.35;3.10;;;;;;;20.29;43.30;101143.22;5058394;28;20040;-60
2022/05/15 00:45:39;;;;;;;13.20;3.00;;;;;;;20.22;43.38;101145.84;5046714;28;20500;-61
2022/05/15 00:48:06;;;;;;;9.60;3.20;;;;;;;20.27;43.16;101131.56;5064023;28;20059;-61
2022/05/15 00:50:37;;;;;;;8.95;3.35;;;;;;;20.23;43.27;101142.69;5061955;28;20041;-61
2022/05/15 00:53:09;;;;;;;8.82;3.47;;;;;;;19.94;43.93;101127.28;5054351;28;20641;-62
2022/05/15 00:55:41;;;;;;;9.50;3.55;;;;;;;20.19;43.76;101118.63;5065874;28;20060;-60
2022/05/15 00:58:14;;;;;;;9.20;2.88;;;;;;;20.27;43.78;101115.59;5065936;28;20056;-60
2022/05/15 01:00:42;;;;;;;8.45;2.97;;;;;;;20.09;43.36;101120.78;5039832;28;20052;-62
2022/05/15 01:03:17;;;;;;;13.30;3.20;;;;;;;20.08;43.97;101118.38;5054614;28;20056;-62
2022/05/15 01:05:47;;;;;;;6.10;2.60;;;;;;;20.17;43.62;101117.00;5053566;28;20527;-61
2022/05/15 01:08:22;;;;;;;9.63;2.53;;;;;;;19.95;43.70;101112.09;5062557;28;20059;-61
2022/05/15 01:10:52;;;;;;;10.82;2.60;;;;;;;20.04;44.06;101118.31;5049287;28;20061;-61
2022/05/15 01:13:23;;;;;;;8.40;2.63;;;;;;;20.09;43.65;101106.81;5058456;28;20085;-61
2022/05/15 01:15:50;;;;;;;7.50;3.10;;;;;;;20.09;43.76;101109.59;5065184;28;20053;-62
2022/05/15 01:18:26;;;;;;;10.95;2.78;;;;;;;20.14;43.48;101102.91;5054156;28;20056;-61
2022/05/15 01:20:55;;;;;;;8.65;2.92;;;;;;;20.37;43.71;101098.22;5030024;28;20067;-62
2022/05/15 01:23:23;;;;;;;6.75;2.70;;;;;;;20.21;43.93;101111.47;5063375;28;20049;-62
2022/05/15 01:25:50;;;;;;;8.15;2.70;;;;;;;20.02;43.86;101108.66;5043674;28;20051;-61
2022/05/15 01:28:21;;;;;;;6.13;2.72;;;;;;;20.04;44.23;101104.31;5041790;28;20052;-62
2022/05/15 01:30:51;;;;;;;9.43;2.97;;;;;;;20.02;43.85;101106.66;5019911;28;20068;-63
2022/05/15 01:33:19;;;;;;;;;;;;;;;19.81;44.05;101103.41;5065289;28;20389;-61
2022/05/15 01:35:46;;;;;;;7.07;2.50;;;;;;;19.92;44.28;101104.47;5051805;28;20114;-62
2022/05/15 01:38:14;;;;;;;12.05;3.00;;;;;;;19.90;44.84;101098.41;5046233;28;20488;-61
2022/05/15 01:40:41;;;;;;;8.52;2.35;;;;;;;20.12;43.94;101088.47;5057682;28;20060;-62
2022/05/15 01:43:10;;;;;;;9.85;3.05;;;;;;;20.00;44.34;101092.22;5065082;28;20049;-61
2022/05/15 01:45:37;;;;;;;8.60;2.72;;;;;;;20.17;44.25;101082.63;5063444;28;20075;-60
2022/05/15 01:48:05;;;;;;;7.65;2.25;;;;;;;20.05;43.91;101086.34;5042924;28;20424;-61
2022/05/15 01:50:33;;;;;;;7.07;2.47;;;;;;;20.06;43.75;101087.97;5058347;28;21267;-63
2022/05/15 01:53:00;;;;;;;8.15;2.63;;;;;;;19.92;44.18;101086.88;5068828;28;20524;-61
2022/05/15 01:55:28;;;;;;;11.00;2.60;;;;;;;19.80;44.34;101085.03;5055506;28;20077;-61
2022/05/15 01:57:55;;;;;;;9.27;3.22;;;;;;;19.73;44.60;101084.06;5076594;28;20974;-61
2022/05/15 02:00:24;;;;;;;12.05;2.53;;;;;;;19.79;45.12;101080.59;5045519;28;20054;-61
2022/05/15 02:02:52;;;;;;;9.10;2.45;;;;;;;20.03;44.13;101076.72;5044775;28;20609;-61
2022/05/15 02:05:21;;;;;;;8.80;2.40;;;;;;;20.16;44.03;101075.41;5043296;28;20048;-63
2022/05/15 02:07:49;;;;;;;7.70;2.70;;;;;;;20.26;44.04;101069.22;5046715;28;20060;-61
2022/05/15 02:10:18;;;;;;;10.07;2.58;;;;;;;20.10;43.98;101062.88;5046495;28;20056;-60
2022/05/15 02:12:47;;;;;;;12.95;2.75;;;;;;;20.06;44.24;101057.22;5053003;28;20049;-61
2022/05/15 02:15:15;;;;;;;7.43;2.65;;;;;;;20.11;43.71;101045.72;5044095;28;20059;-60
2022/05/15 02:17:43;;;;;;;13.38;2.88;;;;;;;20.18;44.17;101047.88;5080387;28;20077;-61
2022/05/15 02:20:12;;;;;;;10.95;2.40;;;;;;;20.03;44.33;101048.75;5057531;28;20057;-62
2022/05/15 02:22:41;;;;;;;9.48;2.80;;;;;;;20.03;44.53;101045.97;5048359;28;20060;-61
2022/05/15 02:25:12;;;;;;;6.88;2.47;;;;;;;19.82;44.84;101043.50;5055378;28;20045;-60
2022/05/15 02:27:43;;;;;;;8.15;2.63;;;;;;;19.77;45.04;101048.59;5057415;28;20048;-61
2022/05/15 02:30:11;;;;;;;7.72;2.75;;;;;;;19.83;45.21;101045.16;5063650;28;20055;-62
2022/05/15 02:32:39;;;;;;;6.28;2.67;;;;;;;19.89;44.59;101052.03;5041703;28;20052;-61
2022/05/15 02:35:07;;;;;;;9.55;2.90;;;;;;;20.00;44.81;101052.25;5048405;28;20045;-61
2022/05/15 02:37:35;;;;;;;11.40;2.65;;;;;;;19.97;45.03;101044.63;5056550;28;20059;-62
2022/05/15 02:40:05;;;;;;;7.95;2.75;;;;;;;19.92;44.45;101053.31;5088508;28;20404;-61
2022/05/15 02:42:33;;;;;;;8.38;2.67;;;;;;;19.90;44.76;101041.69;5056796;28;20049;-61
2022/05/15 02:45:00;;;;;;;10.05;2.28;;;;;;;19.89;44.73;101054.06;5057422;28;20052;-61
2022/05/15 02:47:28;;;;;;;8.75;2.53;;;;;;;19.88;44.93;101056.03;5040983;28;20056;-62
2022/05/15 02:52:42;;;;;;;10.30;3.15;;;;;;;19.95;45.01;101058.97;5080674;28;20057;-61
2022/05/15 02:55:10;;;;;;;7.68;2.85;;;;;;;19.97;45.05;101064.19;5082099;28;20048;-61
2022/05/15 02:57:38;;;;;;;6.78;2.50;;;;;;;19.94;44.86;101064.94;5040748;28;20044;-61
2022/05/15 03:00:08;;;;;;;9.57;2.90;;;;;;;19.98;45.08;101063.00;5066887;28;20060;-61
2022/05/15 03:02:37;;;;;;;8.15;2.63;;;;;;;20.01;45.04;101054.69;5054423;28;20116;-61
2022/05/15 03:05:06;;;;;;;7.55;2.80;;;;;;;20.04;44.82;101053.16;5054481;28;20056;-61
2022/05/15 03:07:34;;;;;;;13.50;2.45;;;;;;;19.72;44.74;101046.91;5050404;28;20496;-61
2022/05/15 03:10:02;;;;;;;10.10;2.80;;;;;;;19.77;45.29;101048.59;5081825;28;20057;-61
2022/05/15 03:12:29;;;;;;;6.40;2.50;;;;;;;19.84;45.01;101045.97;5055653;28;20052;-61
2022/05/15 03:14:56;;;;;;;6.95;2.50;;;;;;;19.86;45.18;101038.81;5065820;28;20056;-61
2022/05/15 03:17:24;;;;;;;7.32;2.70;;;;;;;19.98;44.66;101037.84;5065630;28;20048;-61
2022/05/15 03:19:51;;;;;;;11.93;2.80;;;;;;;19.75;45.10;101037.78;5065853;28;20048;-61
2022/05/15 03:22:19;;;;;;;10.05;2.53;;;;;;;19.81;45.23;101041.91;5066312;28;20103;-62
2022/05/15 03:24:46;;;;;;;6.90;2.33;;;;;;;19.75;45.02;101032.19;5055713;28;20515;-61
2022/05/15 03:27:14;;;;;;;7.35;2.65;;;;;;;19.78;45.17;101034.25;5066169;28;20151;-61
2022/05/15 03:29:42;;;;;;;6.95;2.20;;;;;;;19.82;44.37;101018.34;5060523;28;20054;-61
2022/05/15 03:32:09;;;;;;;8.73;2.58;;;;;;;19.90;44.58;101019.31;5081909;28;20152;-62
2022/05/15 03:34:36;;;;;;;8.48;2.50;;;;;;;19.73;44.98;101031.75;5064225;28;20048;-62
2022/05/15 03:37:07;;;;;;;10.45;2.42;;;;;;;19.75;44.78;101023.00;5053073;28;20053;-60
2022/05/15 03:39:34;;;;;;;9.07;2.20;;;;;;;20.08;44.38;101026.88;5055257;28;20056;-60
2022/05/15 03:42:02;;;;;;;6.93;2.50;;;;;;;19.74;44.31;101019.41;5087391;28;20056;-62
2022/05/15 03:44:29;;;;;;;6.05;2.38;;;;;;;19.74;44.73;101019.41;5022679;28;20072;-62
2022/05/15 03:46:57;;;;;;;8.63;2.30;;;;;;;19.80;44.76;101014.31;5068044;28;20052;-62
2022/05/15 03:49:24;;;;;;;8.63;2.83;;;;;;;19.73;44.89;101017.78;5062172;28;20476;-62
2022/05/15 03:51:51;;;;;;;6.35;1.95;;;;;;;19.62;44.88;101013.94;5039739;28;20050;-62
2022/05/15 03:54:18;;;;;;;10.77;2.50;;;;;;;19.84;44.71;101016.00;5053808;28;20385;-61
2022/05/15 03:56:52;;;;;;;11.93;2.08;;;;;;;19.89;44.18;101001.72;5047908;28;20046;-61
2022/05/15 03:59:32;;;;;;;8.57;2.35;;;;;;;19.75;44.62;100995.06;5049107;28;20073;-62
2022/05/15 04:02:01;;;;;;;9.20;2.40;;;;;;;19.68;44.53;100997.69;5046452;28;20504;-61
2022/05/15 04:04:30;;;;;;;6.80;2.72;;;;;;;19.45;45.05;101006.00;5054163;28;20048;-61
2022/05/15 04:06:59;;;;;;;10.10;2.38;;;;;;;19.58;45.06;101009.47;5052980;28;20051;-60
2022/05/15 04:09:27;;;;;;;10.00;2.58;;;;;;;19.59;44.82;101008.28;5044068;28;20053;-61
2022/05/15 04:11:55;;;;;;;9.70;2.40;;;;;;;19.51;45.53;101014.91;5084498;28;20064;-60
2022/05/15 04:14:23;;;;;;;8.38;2.15;;;;;;;19.40;45.23;101023.06;5063875;28;20060;-61
2022/05/15 04:16:50;;;;;;;8.50;2.67;;;;;;;19.41;45.65;101021.03;5034677;28;20049;-61
2022/05/15 04:19:17;;;;;;;10.80;2.58;;;;;;;19.39;45.75;101013.03;5061721;28;20052;-61
2022/05/15 04:21:45;;;;;;;7.10;2.58;;;;;;;19.27;45.65;101004.75;5052144;28;20156;-62
2022/05/15 04:24:15;;;;;;;4.78;2.25;;;;;;;19.38;45.80;101008.63;5059003;28;20056;-61
2022/05/15 04:26:44;;;;;;;6.47;2.50;;;;;;;19.48;45.31;101007.22;5039723;28;20127;-62
2022/05/15 04:29:12;;;;;;;6.82;2.50;;;;;;;19.47;45.36;101005.63;5057841;28;20059;-62
2022/05/15 04:31:39;;;;;;;7.32;2.67;;;;;;;19.39;45.62;101001.03;5049401;28;20049;-62
2022/05/15 04:34:06;;;;;;;5.35;2.40;;;;;;;19.22;45.68;100995.84;5053104;28;20048;-60
2022/05/15 04:36:34;;;;;;;9.10;2.65;;;;;;;19.23;45.86;100989.88;5059679;28;20460;-62
2022/05/15 04:39:03;;;;;;;7.85;2.47;;;;;;;19.33;45.45;100999.72;5043018;28;20068;-61
2022/05/15 04:41:31;;;;;;;8.85;2.35;;;;;;;19.49;45.41;100992.09;5054525;28;20526;-62
2022/05/15 04:43:58;;;;;;;6.68;2.13;;;;;;;19.32;45.79;100996.13;5086168;28;20057;-61
2022/05/15 04:46:29;;;;;;;10.05;2.00;;;;;;;19.38;45.98;101000.25;5036874;28;20060;-61
2022/05/15 04:48:58;;;;;;;8.13;2.60;;;;;;;19.26;46.00;100999.53;5052914;28;20052;-61
2022/05/15 04:51:26;;;;;;;6.45;2.53;;;;;;;19.30;45.67;101008.81;5049020;28;20051;-60
2022/05/15 04:53:53;;;;;;;7.28;2.45;;;;;;;19.12;46.31;101002.00;5039742;28;20061;-60
2022/05/15 04:56:21;;;;;;;6.70;2.10;;;;;;;19.30;45.60;101008.81;5076061;28;20048;-62
2022/05/15 04:58:48;;;;;;;7.45;2.75;;;;;;;19.22;45.52;101012.59;5054161;28;20558;-61
2022/05/15 05:01:17;;;;;;;7.82;2.15;;;;;;;19.18;46.05;101012.53;5051436;28;20061;-61
2022/05/15 05:03:45;;;;;;;5.78;2.22;;;;;;;19.14;45.84;101017.22;5036534;28;20069;-62
2022/05/15 05:06:13;;;;;;;8.30;2.42;;;;;;;19.13;46.30;101021.19;5053826;28;20040;-62
2022/05/15 05:08:40;;;;;;;5.97;2.38;;;;;;;19.31;46.09;101016.03;5054258;28;20049;-61
2022/05/15 05:11:07;;;;;;;7.97;2.22;;;;;;;19.34;46.05;101016.13;5079932;28;20048;-62
2022/05/15 05:13:34;;;;;;;9.38;2.10;;;;;;;19.48;45.53;101019.22;5052999;28;20055;-61
2022/05/15 05:16:02;;;;;;;6.22;2.15;;;;;;;19.35;45.15;101017.75;5062436;28;20071;-60
2022/05/15 05:18:29;;;;;;;10.05;2.25;;;;;;;19.40;45.49;101020.25;5057405;28;20053;-61
2022/05/15 05:20:57;;;;;;;9.35;2.30;;;;;;;19.63;45.48;101015.56;5056493;28;20057;-62
2022/05/15 05:23:24;;;;;;;11.38;2.40;;;;;;;19.69;45.15;101011.31;5063045;28;20479;-61
2022/05/15 05:25:51;;;;;;;4.90;1.83;;;;;;;19.70;45.15;101017.72;5061399;28;20064;-62
2022/05/15 05:28:19;;;;;;;7.60;2.50;;;;;;;19.69;44.72;101018.88;5050801;28;20048;-62
2022/05/15 05:30:46;;;;;;;8.07;2.30;;;;;;;19.51;44.86;101026.88;5057694;28;20048;-61
2022/05/15 05:33:14;;;;;;;6.78;2.50;;;;;;;19.64;45.03;101024.75;5045637;28;20057;-62
2022/05/15 05:35:42;;;;;;;6.35;2.10;;;;;;;19.66;44.70;101026.03;5048472;28;20052;-61
2022/05/15 05:38:10;;;;;;;8.10;2.25;;;;;;;19.68;44.50;101023.66;5066142;28;20393;-61
2022/05/15 05:40:38;;;;;;;8.77;2.08;;;;;;;19.78;43.97;101025.88;5055799;28;20044;-62
2022/05/15 05:43:06;;;;;;;8.70;2.17;;;;;;;19.44;44.84;101035.09;5057946;28;20056;-62
2022/05/15 05:45:33;;;;;;;4.28;1.80;;;;;;;19.50;45.33;101025.25;5053594;28;20052;-61
2022/05/15 05:48:00;;;;;;;4.93;1.80;;;;;;;19.72;44.70;101016.16;5045424;28;20053;-62
2022/05/15 05:50:28;;;;;;;8.52;2.88;;;;;;;19.64;44.41;101019.16;5048329;28;20045;-62
2022/05/15 05:52:57;;;;;;;9.00;2.20;;;;;;;19.71;44.58;101024.91;5067966;28;20419;-61
2022/05/15 05:55:25;;;;;;;6.18;2.13;;;;;;;19.68;44.44;101020.06;5054162;28;20606;-62
2022/05/15 05:57:53;;;;;;;7.82;2.20;;;;;;;19.76;44.51;101017.03;5053359;28;20068;-62
2022/05/15 06:00:25;;;;;;;6.82;2.10;;;;;;;19.76;44.10;101011.44;5039007;28;20064;-62
2022/05/15 06:02:52;;;;;;;5.70;2.10;;;;;;;19.72;44.39;101016.16;5055090;28;20136;-61
2022/05/15 06:05:20;;;;;;;9.68;2.65;;;;;;;19.79;44.13;101009.88;5037119;28;20412;-62
2022/05/15 06:07:47;;;;;;;9.20;2.67;;;;;;;19.93;44.26;101010.19;5052735;28;20060;-62
2022/05/15 06:10:15;;;;;;;7.45;2.33;;;;;;;20.07;44.08;101022.47;5051735;28;20052;-62
2022/05/15 06:12:44;;;;;;;6.72;2.00;;;;;;;20.09;43.79;101024.88;5068483;28;20056;-60
2022/05/15 06:15:12;;;;;;;4.75;2.10;;;;;;;20.05;43.61;101018.41;5046999;28;20048;-61
2022/05/15 06:17:40;;;;;;;6.00;2.03;;;;;;;19.79;43.84;101024.69;5043086;28;20053;-61
2022/05/15 06:20:09;;;;;;;9.70;2.28;;;;;;;20.12;43.23;101013.78;5082447;28;20059;-61
2022/05/15 06:22:36;;;;;;;7.55;2.10;;;;;;;20.25;42.68;101010.84;5062261;28;20045;-61
2022/05/15 06:25:05;;;;;;;8.88;2.70;;;;;;;20.36;42.82;101017.44;5075819;28;20056;-62
2022/05/15 06:27:32;;;;;;;7.03;2.20;;;;;;;20.30;42.63;101014.13;5042914;28;20052;-62
2022/05/15 06:30:01;;;;;;;4.78;1.90;;;;;;;20.29;42.86;101006.13;5050405;28;20512;-61
2022/05/15 06:32:28;;;;;;;7.75;2.00;;;;;;;20.16;42.00;101011.06;5062907;28;20045;-61
2022/05/15 06:34:55;;;;;;;5.55;1.60;;;;;;;20.37;41.90;101008.69;5057781;28;20440;-61
2022/05/15 06:37:22;;;;;;;5.88;2.00;;;;;;;20.23;42.46;101018.78;5056049;28;20067;-61
2022/05/15 06:39:50;;;;;;;4.97;2.00;;;;;;;20.29;42.24;101020.09;5058346;28;20376;-63
2022/05/15 06:42:17;;;;;;;7.60;2.00;;;;;;;20.27;42.30;101031.69;5041886;28;20132;-62
2022/05/15 06:44:47;;;;;;;12.20;2.38;;;;;;;20.08;43.11;101020.47;5057765;28;20055;-61
2022/05/15 06:47:14;;;;;;;4.75;2.10;;;;;;;20.26;42.50;101024.44;5062300;28;20053;-61
2022/05/15 06:49:42;;;;;;;8.35;2.08;;;;;;;20.38;42.52;101029.06;5044741;28;20056;-62
2022/05/15 06:52:09;;;;;;;9.70;2.10;;;;;;;20.09;43.09;101020.13;5056085;28;20049;-61
2022/05/15 06:54:36;;;;;;;8.20;2.97;;;;;;;20.14;42.68;101019.81;5058916;28;20052;-62
2022/05/15 06:59:50;;;;;;;4.68;1.92;;;;;;;20.00;43.13;101008.34;5057335;28;20052;-61
2022/05/15 07:02:18;;;;;;;9.20;2.60;;;;;;;19.90;43.56;101002.53;5051370;28;20052;-62
2022/05/15 07:04:45;;;;;;;9.80;2.67;;;;;;;20.12;43.21;101001.75;5044890;28;20045;-61
2022/05/15 07:07:12;;;;;;;6.57;2.53;;;;;;;20.13;42.83;100998.63;5055316;28;20045;-62
2022/05/15 07:09:40;;;;;;;7.60;2.25;;;;;;;20.35;42.45;101002.63;5057662;28;20045;-61
2022/05/15 07:12:08;;;;;;;7.13;2.13;;;;;;;20.31;43.12;100998.16;5036385;28;20531;-62
2022/05/15 07:14:36;;;;;;;6.28;2.05;;;;;;;20.44;42.79;100988.41;5042722;28;20522;-62
2022/05/15 07:17:04;;;;;;;7.50;2.20;;;;;;;20.40;43.15;100987.53;5049288;28;20064;-62
2022/05/15 07:19:31;;;;;;;9.20;2.30;;;;;;;20.34;42.32;100980.63;5040619;28;20044;-62
2022/05/15 07:21:59;;;;;;;7.07;1.77;;;;;;;20.41;42.87;100980.75;5045694;28;20057;-62
2022/05/15 07:24:28;;;;;;;6.70;2.38;;;;;;;20.45;42.85;100974.03;5047100;28;20083;-62
2022/05/15 07:26:55;;;;;;;7.13;2.30;;;;;;;20.59;42.50;100965.88;5047949;28;20053;-63
2022/05/15 07:29:24;;;;;;;5.82;2.00;;;;;;;20.79;41.82;100963.81;5063336;28;20048;-62
2022/05/15 07:31:53;;;;;;;9.95;2.30;;;;;;;20.85;41.99;100965.09;5064660;28;20488;-61
2022/05/15 07:34:21;;;;;;;8.60;1.90;;;;;;;21.25;41.44;100971.72;5055517;28;20084;-62
2022/05/15 07:36:50;;;;;;;8.60;2.45;;;;;;;21.35;40.71;100969.47;5063503;28;20053;-62
2022/05/15 07:39:19;;;;;;;10.30;2.15;;;;;;;21.42;40.42;100970.38;5081746;28;20041;-60
2022/05/15 07:41:47;;;;;;;7.00;2.17;;;;;;;21.47;40.47;100974.81;5057726;28;20053;-63
2022/05/15 07:44:15;;;;;;;8.10;2.10;;;;;;;21.70;39.17;100965.13;5055502;28;20500;-62
2022/05/15 07:46:43;;;;;;;6.82;2.28;;;;;;;21.81;39.68;100957.66;5053722;28;20056;-62
2022/05/15 07:49:12;;;;;;;6.15;1.95;;;;;;;22.03;38.71;100950.28;5056140;28;20047;-63
2022/05/15 07:51:44;;;;;;;5.95;1.88;;;;;;;22.01;38.78;100947.06;5054905;28;20060;-62
2022/05/15 07:54:16;;;;;;;5.93;1.95;;;;;;;21.90;38.50;100946.94;5055132;28;20053;-62
2022/05/15 07:56:44;;;;;;;7.85;2.72;;;;;;;22.38;38.43;100935.78;5078480;28;20057;-62
2022/05/15 07:59:12;;;;;;;9.48;4.10;;;;;;;22.59;37.88;100936.81;5058201;28;20049;-62
2022/05/15 08:01:41;;;;;;;7.00;2.10;;;;;;;22.71;37.59;100935.69;5052005;28;20049;-60
2022/05/15 08:04:10;;;;;;;7.90;1.67;;;;;;;22.75;36.97;100936.53;5034491;28;20053;-61
2022/05/15 08:09:24;;;;;;;4.85;1.73;;;;;;;23.10;36.23;100920.69;5058957;28;20056;-61
2022/05/15 08:11:51;;;;;;;9.48;1.88;;;;;;;23.03;36.31;100908.63;5035936;28;20063;-62
2022/05/15 08:14:20;;;;;;;6.47;2.45;;;;;;;22.84;36.86;100914.53;5056358;28;20048;-63
2022/05/15 08:16:47;;;;;;;9.43;2.20;;;;;;;22.94;37.04;100908.16;5059756;28;20053;-63
2022/05/15 08:24:48;;;;;;;6.03;3.10;;;;;;;23.20;36.55;100893.88;5047409;28;20515;-63
2022/05/15 08:27:15;;;;;;;6.30;3.20;;;;;;;23.06;36.60;100897.41;5059174;28;20607;-62
2022/05/15 08:29:43;;;;;;;10.82;7.63;;;;;;;23.06;36.88;100896.59;5059274;28;20053;-63
2022/05/15 08:32:10;;;;;;;7.90;4.05;;;;;;;22.88;36.72;100893.69;5061677;28;20139;-61
2022/05/15 08:34:43;;;;;;;8.90;4.47;;;;;;;22.98;36.77;100894.97;5059520;28;20461;-62
2022/05/15 08:37:10;;;;;;;12.15;4.75;;;;;;;23.00;37.63;100892.53;5050813;28;21604;-62
2022/05/15 08:39:38;;;;;;;10.38;5.05;;;;;;;23.00;37.27;100893.34;5041483;28;20040;-62
2022/05/15 08:42:25;;;;;;;7.80;4.32;;;;;;;23.44;36.72;100884.75;5055277;28;20075;-62
2022/05/15 08:44:58;;;;;;;6.22;2.85;;;;;;;23.36;36.58;100880.31;5065904;28;20048;-64
2022/05/15 08:47:33;;;;;;;8.93;3.80;;;;;;;23.47;36.01;100880.34;5059428;28;20496;-63
2022/05/15 08:50:13;;;;;;;10.27;4.85;;;;;;;23.39;35.87;100871.91;5052595;28;20259;-63
2022/05/15 08:52:47;;;;;;;8.57;3.15;;;;;;;23.36;35.97;100875.47;5058478;28;20081;-63
2022/05/15 08:55:22;;;;;;;8.70;3.25;;;;;;;23.19;35.77;100886.63;5046606;28;20049;-63
2022/05/15 08:58:11;;;;;;;7.38;2.50;;;;;;;23.11;35.81;100873.75;5039103;28;20075;-61
2022/05/15 09:00:46;;;;;;;8.93;2.97;;;;;;;23.35;36.00;100876.69;5022890;28;20045;-63
2022/05/15 09:03:26;;;;;;;7.05;2.60;;;;;;;23.62;35.75;100870.75;5066817;28;20045;-62
2022/05/15 09:06:03;;;;;;;11.25;3.35;;;;;;;23.73;35.61;100871.59;5043527;28;20045;-62
2022/05/15 09:08:54;;;;;;;5.22;2.00;;;;;;;23.90;35.51;100868.78;5048329;28;20041;-62
2022/05/15 09:11:40;;;;;;;3.92;1.52;;;;;;;23.70;35.52;100870.38;5055960;28;20052;-63
2022/05/15 09:14:14;;;;;;;6.10;1.85;;;;;;;23.43;36.04;100869.09;5070028;28;20048;-63
2022/05/15 09:16:54;;;;;;;7.57;2.30;;;;;;;23.43;36.12;100874.72;5053704;28;20056;-62
2022/05/15 09:19:22;;;;;;;5.90;1.67;;;;;;;23.44;36.11;100865.06;5052842;28;20045;-64
2022/05/15 09:21:57;;;;;;;5.95;1.90;;;;;;;23.59;36.08;100866.72;5049230;28;20053;-63
2022/05/15 09:24:39;;;;;;;9.57;3.65;;;;;;;23.57;36.20;100866.34;5055236;28;20049;-63
2022/05/15 09:27:12;;;;;;;6.20;1.98;;;;;;;23.76;36.17;100857.53;5049652;28;20060;-62
2022/05/15 09:29:40;;;;;;;4.47;1.70;;;;;;;24.05;35.10;100859.19;5037955;28;20041;-68
2022/05/15 09:32:35;;;;;;;7.78;1.77;;;;;;;23.94;35.01;100847.09;5046259;28;20439;-66
2022/05/15 09:35:03;;;;;;;11.50;1.98;;;;;;;23.81;35.41;100857.13;5049119;28;20049;-69
2022/05/15 09:43:30;;;;;;;5.15;2.60;;;;;;;24.21;35.10;100854.00;5083161;28;20052;-71
2022/05/15 09:43:32;;;;;;;5.95;1.67;;;;;;;24.51;34.25;100850.75;5074781;28;20056;-68
2022/05/15 09:46:16;;;;;;;7.45;2.33;;;;;;;24.49;33.85;100844.72;5056496;28;20052;-68
2022/05/15 09:49:18;;;;;;;6.32;1.70;;;;;;;24.56;33.33;100830.63;5054563;28;20151;-71
2022/05/15 09:51:48;;;;;;;5.85;1.67;;;;;;;24.41;32.98;100829.81;5072166;28;20053;-69
2022/05/15 09:54:43;;;;;;;4.38;1.33;;;;;;;24.58;32.24;100825.38;5053766;28;20059;-74
2022/05/15 09:57:13;;;;;;;6.50;1.67;;;;;;;24.56;31.85;100822.16;5055824;28;20063;-66
2022/05/15 09:59:42;;;;;;;4.63;1.40;;;;;;;24.63;31.93;100816.53;5062100;28;20433;-62
2022/05/15 10:02:23;;;;;;;5.82;1.40;;;;;;;24.57;32.33;100817.31;5068770;28;20057;-65
2022/05/15 10:04:52;;;;;;;7.63;2.10;;;;;;;24.67;33.16;100819.31;5051450;28;20063;-63
2022/05/15 10:07:35;;;;;;;6.90;1.80;;;;;;;24.76;32.40;100809.25;5045986;28;20057;-65
2022/05/15 10:10:22;;;;;;;6.75;1.40;;;;;;;24.71;31.54;100806.03;5063226;28;20049;-67
2022/05/15 10:12:55;;;;;;;8.02;1.40;;;;;;;24.69;31.24;100814.09;5046662;28;20064;-65
2022/05/15 10:15:24;;;;;;;14.43;2.20;;;;;;;24.84;31.67;100810.03;5038239;28;20052;-67
2022/05/15 10:17:56;;;;;;;8.35;1.45;;;;;;;24.81;31.28;100803.19;5061867;28;20061;-65
2022/05/15 10:20:31;;;;;;;9.73;1.40;;;;;;;24.87;31.44;100806.41;5052477;28;20049;-64
2022/05/15 10:23:14;;;;;;;9.73;1.40;;;;;;;24.98;30.53;100795.91;5059706;28;20055;-64
2022/05/15 10:25:48;;;;;;;4.65;1.17;;;;;;;25.08;31.01;100787.41;5056188;28;20057;-64
2022/05/15 10:28:39;;;;;;;5.15;1.70;;;;;;;25.11;30.84;100785.75;5049479;28;20037;-65
2022/05/15 10:31:23;;;;;;;4.63;1.15;;;;;;;25.37;30.68;100779.59;5048506;28;20068;-65
2022/05/15 10:33:54;;;;;;;3.33;1.23;;;;;;;25.19;30.93;100776.06;5053490;28;20048;-65
2022/05/15 10:36:23;;;;;;;11.40;1.40;;;;;;;25.08;31.31;100778.94;5082618;28;20052;-65
2022/05/15 10:38:53;;;;;;;4.13;1.40;;;;;;;25.25;31.58;100778.03;5050228;28;20051;-65
2022/05/15 10:41:26;;;;;;;4.55;1.45;;;;;;;25.26;31.49;100773.22;5054246;28;20051;-64
2022/05/15 10:44:06;;;;;;;6.35;1.50;;;;;;;25.30;31.43;100776.81;5054302;28;20059;-64
2022/05/15 10:46:57;;;;;;;7.90;1.70;;;;;;;25.30;31.64;100776.81;5055541;28;20046;-64
2022/05/15 10:49:36;;;;;;;10.93;1.92;;;;;;;25.36;31.31;100767.53;5071450;28;20059;-65
2022/05/15 10:52:18;;;;;;;5.30;1.63;;;;;;;25.59;31.34;100761.34;5055267;28;20069;-68
2022/05/15 10:58:11;;;;;;;7.45;1.50;;;;;;;26.01;30.71;100763.84;5046195;28;20503;-65
2022/05/15 11:00:59;;;;;;;3.40;1.20;;;;;;;25.91;30.65;100761.88;5047208;28;20040;-65
2022/05/15 11:04:04;;;;;;;7.57;1.35;;;;;;;26.01;30.32;100754.56;5055553;28;20052;-65
2022/05/15 11:06:56;;;;;;;8.43;1.40;;;;;;;26.19;30.18;100750.38;5054366;28;20045;-65
2022/05/15 11:09:38;;;;;;;4.82;1.45;;;;;;;26.40;29.97;100746.50;5066079;28;20059;-65
2022/05/15 11:12:27;;;;;;;4.63;1.42;;;;;;;26.19;29.97;100744.72;5059379;28;20036;-64
2022/05/15 11:15:19;;;;;;;5.88;1.50;;;;;;;26.12;30.47;100741.16;5054139;28;20056;-64
2022/05/15 11:18:00;;;;;;;7.00;1.90;;;;;;;26.37;29.95;100736.88;5056600;28;20057;-64
2022/05/15 11:20:53;;;;;;;8.35;2.03;;;;;;;26.61;30.11;100738.63;5053673;28;20040;-64
2022/05/15 11:23:27;;;;;;;8.45;1.83;;;;;;;26.34;29.93;100729.22;5057011;28;20055;-63
2022/05/15 11:26:07;;;;;;;6.90;1.60;;;;;;;26.46;29.45;100737.19;5050538;28;20358;-64
2022/05/15 11:28:37;;;;;;;;;;;;;;;26.44;29.76;100733.97;5055346;28;20419;-64
2022/05/15 11:31:09;;;;;;;5.22;1.50;;;;;;;26.60;29.42;100728.53;5058826;28;19992;-64
2022/05/15 11:33:43;;;;;;;5.88;1.65;;;;;;;26.73;29.40;100731.63;5053838;28;20057;-65
2022/05/15 11:36:14;;;;;;;8.52;2.17;;;;;;;26.63;29.18;100721.22;5055805;28;20079;-65
2022/05/15 11:39:01;;;;;;;6.75;1.80;;;;;;;26.76;28.37;100713.84;5030216;28;20048;-63
2022/05/15 11:41:34;;;;;;;9.40;2.17;;;;;;;26.78;27.70;100708.53;5060702;28;20064;-62
2022/05/15 11:44:04;;;;;;;11.40;2.30;;;;;;;26.90;27.82;100705.19;5052481;28;20115;-63
2022/05/15 11:46:47;;;;;;;10.50;2.22;;;;;;;26.92;27.66;100714.00;5055307;28;20065;-62
2022/05/15 11:49:49;;;;;;;6.50;1.60;;;;;;;26.83;27.30;100716.59;5051638;28;20059;-64
2022/05/15 11:52:18;;;;;;;7.28;1.73;;;;;;;26.95;27.17;100709.56;5070318;28;20432;-64
2022/05/15 11:54:48;;;;;;;6.85;1.85;;;;;;;26.95;26.94;100716.00;5057218;28;20056;-64
2022/05/15 11:57:39;;;;;;;5.97;2.00;;;;;;;27.14;27.07;100711.69;5056255;28;20057;-63
2022/05/15 12:00:11;;;;;;;7.90;2.08;;;;;;;27.11;26.99;100704.06;5044827;28;20053;-62
2022/05/15 12:02:48;;;;;;;7.63;2.20;;;;;;;27.19;26.77;100708.41;5082906;28;20487;-64